Time;durP1;ratioP1;P1;durP2;ratioP2;P2;SDS_P1;SDS_P2;PMS_P1;PMS_P2;Temp;Humidity;BMP_temperature;BMP_pressure;BME280_temperature;BME280_humidity;BME280_pressure;Samples;Min_cycle;Max_cycle;Signal;HPM_P1;HPM_P2
2022/03/10 00:02:22;;;;;;;6.77;3.30;;;;;;;;;;4942868;29;20352;-63
2022/03/10 00:04:49;;;;;;;7.37;3.60;;;;;;;;;;4938552;29;20260;-63
2022/03/10 00:07:16;;;;;;;4.73;3.40;;;;;;;;;;4947540;29;20229;-63
2022/03/10 00:09:44;;;;;;;4.53;3.10;;;;;;;;;;4940426;29;20701;-63
2022/03/10 00:12:11;;;;;;;5.93;3.13;;;;;;;;;;4939486;29;20221;-63
2022/03/10 00:14:38;;;;;;;5.83;3.73;;;;;;;;;;4947135;29;20240;-63
2022/03/10 00:17:05;;;;;;;6.10;3.70;;;;;;;;;;4941540;28;20217;-63
2022/03/10 00:19:32;;;;;;;4.53;3.27;;;;;;;;;;4936274;29;20671;-63
2022/03/10 00:21:59;;;;;;;5.90;3.17;;;;;;;;;;4937413;29;20212;-63
2022/03/10 00:24:26;;;;;;;4.90;2.87;;;;;;;;;;4940128;29;20298;-63
2022/03/10 00:26:55;;;;;;;5.60;3.23;;;;;;;;;;4935265;29;20209;-62
2022/03/10 00:29:22;;;;;;;4.50;3.97;;;;;;;;;;4942262;29;20238;-63
2022/03/10 00:31:49;;;;;;;10.37;4.03;;;;;;;;;;4939371;29;20745;-62
2022/03/10 00:34:16;;;;;;;8.87;3.77;;;;;;;;;;4938718;29;20235;-62
2022/03/10 00:36:43;;;;;;;6.67;3.33;;;;;;;;;;4947764;29;20434;-62
2022/03/10 00:39:10;;;;;;;7.77;4.13;;;;;;;;;;4938571;29;20738;-62
2022/03/10 00:41:37;;;;;;;6.10;2.93;;;;;;;;;;4950919;29;20211;-62
2022/03/10 00:44:06;;;;;;;3.43;3.10;;;;;;;;;;4947087;29;20207;-62
2022/03/10 00:46:33;;;;;;;5.57;3.70;;;;;;;;;;4939641;29;20667;-62
2022/03/10 00:49:00;;;;;;;5.93;3.70;;;;;;;;;;4948316;29;20268;-63
2022/03/10 00:51:27;;;;;;;13.47;6.00;;;;;;;;;;4937252;29;20203;-63
2022/03/10 00:53:54;;;;;;;13.13;5.87;;;;;;;;;;4946249;29;20290;-63
2022/03/10 00:56:21;;;;;;;12.80;5.90;;;;;;;;;;4945606;29;20214;-62
2022/03/10 00:58:48;;;;;;;11.70;4.47;;;;;;;;;;4942774;29;20208;-63
2022/03/10 01:01:16;;;;;;;6.43;4.00;;;;;;;;;;4942496;29;20213;-63
2022/03/10 01:03:43;;;;;;;7.13;3.60;;;;;;;;;;4944561;29;20199;-63
2022/03/10 01:06:10;;;;;;;8.30;3.70;;;;;;;;;;4939309;29;20634;-62
2022/03/10 01:08:37;;;;;;;6.67;3.27;;;;;;;;;;4940459;29;20210;-63
2022/03/10 01:11:04;;;;;;;6.80;3.30;;;;;;;;;;4946338;29;20207;-62
2022/03/10 01:13:31;;;;;;;4.27;2.57;;;;;;;;;;4940963;29;20223;-63
2022/03/10 01:15:58;;;;;;;6.17;3.73;;;;;;;;;;4937768;29;20204;-62
2022/03/10 01:18:27;;;;;;;5.17;3.47;;;;;;;;;;4947389;29;20218;-63
2022/03/10 01:20:54;;;;;;;3.37;2.80;;;;;;;;;;4938959;29;20212;-63
2022/03/10 01:23:21;;;;;;;8.37;3.27;;;;;;;;;;4945689;28;20207;-62
2022/03/10 01:25:48;;;;;;;3.43;2.33;;;;;;;;;;4934112;29;20242;-62
2022/03/10 01:28:15;;;;;;;3.87;3.40;;;;;;;;;;4944107;29;20231;-62
2022/03/10 01:30:42;;;;;;;10.73;3.17;;;;;;;;;;4932019;29;20683;-63
2022/03/10 01:33:09;;;;;;;3.10;2.77;;;;;;;;;;4945427;29;20211;-63
2022/03/10 01:35:38;;;;;;;6.83;2.67;;;;;;;;;;4937599;29;20218;-62
2022/03/10 01:38:05;;;;;;;4.33;2.90;;;;;;;;;;4935469;29;20209;-62
2022/03/10 01:40:32;;;;;;;5.10;2.70;;;;;;;;;;4932945;29;20208;-62
2022/03/10 01:42:59;;;;;;;5.03;3.23;;;;;;;;;;4931930;29;20887;-62
2022/03/10 01:45:28;;;;;;;2.97;2.50;;;;;;;;;;4944427;28;20218;-63
2022/03/10 01:47:55;;;;;;;2.50;2.23;;;;;;;;;;4948110;29;20239;-62
2022/03/10 01:50:22;;;;;;;8.70;2.70;;;;;;;;;;4942670;29;20302;-62
2022/03/10 01:52:50;;;;;;;10.80;2.53;;;;;;;;;;4941244;29;21023;-62
2022/03/10 01:55:18;;;;;;;3.40;2.60;;;;;;;;;;4947426;28;20231;-62
2022/03/10 01:57:45;;;;;;;4.00;3.03;;;;;;;;;;4943509;29;20282;-62
2022/03/10 02:00:13;;;;;;;5.17;3.30;;;;;;;;;;4936914;29;20211;-62
2022/03/10 02:02:40;;;;;;;3.70;2.03;;;;;;;;;;4940649;29;20286;-65
2022/03/10 02:05:08;;;;;;;3.63;2.60;;;;;;;;;;4948951;28;20215;-63
2022/03/10 02:10:21;;;;;;;6.20;2.33;;;;;;;;;;4935963;29;20339;-63
2022/03/10 02:12:49;;;;;;;3.70;2.53;;;;;;;;;;4931236;29;20259;-62
2022/03/10 02:18:01;;;;;;;3.27;2.97;;;;;;;;;;4941677;29;20221;-62
2022/03/10 02:20:28;;;;;;;9.00;3.13;;;;;;;;;;4947232;29;20561;-62
2022/03/10 02:22:57;;;;;;;4.80;3.83;;;;;;;;;;4948088;29;20202;-62
2022/03/10 02:25:26;;;;;;;5.47;3.60;;;;;;;;;;4936752;29;20316;-62
2022/03/10 02:27:54;;;;;;;5.33;2.80;;;;;;;;;;4941927;29;20243;-63
2022/03/10 02:30:22;;;;;;;5.57;2.93;;;;;;;;;;4938915;29;20217;-62
2022/03/10 02:32:49;;;;;;;4.37;3.20;;;;;;;;;;4945184;29;20222;-62
2022/03/10 02:35:17;;;;;;;6.03;3.23;;;;;;;;;;4936988;28;20277;-62
2022/03/10 02:37:44;;;;;;;5.03;2.63;;;;;;;;;;4943383;29;20211;-62
2022/03/10 02:40:12;;;;;;;4.63;2.87;;;;;;;;;;4942709;29;20211;-62
2022/03/10 02:42:40;;;;;;;8.20;2.50;;;;;;;;;;4943346;29;20290;-62
2022/03/10 02:45:07;;;;;;;5.77;2.70;;;;;;;;;;4938458;29;20215;-62
2022/03/10 02:47:34;;;;;;;2.90;2.33;;;;;;;;;;4940350;29;20239;-62
2022/03/10 02:50:03;;;;;;;3.17;2.70;;;;;;;;;;4944262;28;20215;-62
2022/03/10 02:52:30;;;;;;;3.10;2.47;;;;;;;;;;4945233;29;20210;-62
2022/03/10 02:54:57;;;;;;;3.97;2.87;;;;;;;;;;4945867;29;20235;-62
2022/03/10 02:57:27;;;;;;;2.80;2.30;;;;;;;;;;4947454;29;20232;-62
2022/03/10 02:59:54;;;;;;;4.40;2.47;;;;;;;;;;4940094;29;20242;-63
2022/03/10 03:02:22;;;;;;;4.03;3.10;;;;;;;;;;4938045;29;20638;-62
2022/03/10 03:04:49;;;;;;;3.47;3.17;;;;;;;;;;4943506;29;20581;-63
2022/03/10 03:07:16;;;;;;;3.87;2.70;;;;;;;;;;4946454;29;20218;-62
2022/03/10 03:09:43;;;;;;;3.53;2.87;;;;;;;;;;4934496;29;20218;-62
2022/03/10 03:12:10;;;;;;;3.97;2.30;;;;;;;;;;4936702;28;20211;-62
2022/03/10 03:14:39;;;;;;;10.13;3.73;;;;;;;;;;4939892;28;20231;-62
2022/03/10 03:17:06;;;;;;;4.43;2.50;;;;;;;;;;4945400;29;20214;-62
2022/03/10 03:19:33;;;;;;;3.87;2.70;;;;;;;;;;4947370;29;20210;-62
2022/03/10 03:22:00;;;;;;;2.47;2.27;;;;;;;;;;4935366;29;20327;-62
2022/03/10 03:24:27;;;;;;;3.67;2.40;;;;;;;;;;4937750;29;20206;-62
2022/03/10 03:26:54;;;;;;;4.77;2.07;;;;;;;;;;4941170;29;20204;-62
2022/03/10 03:29:21;;;;;;;3.60;2.60;;;;;;;;;;4940297;29;20208;-63
2022/03/10 03:31:49;;;;;;;4.60;2.80;;;;;;;;;;4941026;28;20757;-62
2022/03/10 03:34:16;;;;;;;4.67;3.03;;;;;;;;;;4939784;28;20230;-62
2022/03/10 03:36:45;;;;;;;5.13;2.90;;;;;;;;;;4944709;29;20214;-62
2022/03/10 03:39:13;;;;;;;2.93;2.60;;;;;;;;;;4944377;29;20217;-62
2022/03/10 03:41:40;;;;;;;2.97;2.77;;;;;;;;;;4939823;29;20213;-63
2022/03/10 03:44:07;;;;;;;5.17;2.17;;;;;;;;;;4939498;29;20211;-62
2022/03/10 03:46:35;;;;;;;4.90;2.50;;;;;;;;;;4940589;28;20215;-62
2022/03/10 03:49:04;;;;;;;3.80;3.10;;;;;;;;;;4943288;28;20272;-62
2022/03/10 03:51:32;;;;;;;10.90;4.03;;;;;;;;;;4938708;29;20219;-62
2022/03/10 03:53:59;;;;;;;8.40;4.00;;;;;;;;;;4941432;29;20311;-62
2022/03/10 03:56:26;;;;;;;25.67;5.53;;;;;;;;;;4945364;29;20214;-62
2022/03/10 03:58:53;;;;;;;9.50;4.43;;;;;;;;;;4950346;29;20209;-62
2022/03/10 04:01:20;;;;;;;13.67;4.73;;;;;;;;;;4947032;28;20214;-62
2022/03/10 04:03:48;;;;;;;10.97;4.40;;;;;;;;;;4945323;29;20214;-62
2022/03/10 04:06:17;;;;;;;6.00;3.60;;;;;;;;;;4942459;29;20206;-62
2022/03/10 04:08:44;;;;;;;6.37;3.97;;;;;;;;;;4946097;28;20256;-62
2022/03/10 04:11:11;;;;;;;7.17;2.57;;;;;;;;;;4948784;28;20217;-62
2022/03/10 04:13:38;;;;;;;7.50;2.80;;;;;;;;;;4941604;29;20221;-62
2022/03/10 04:16:06;;;;;;;4.77;2.47;;;;;;;;;;4934336;29;20234;-62
2022/03/10 04:18:34;;;;;;;3.47;2.33;;;;;;;;;;4958738;28;20249;-62
2022/03/10 04:21:01;;;;;;;2.17;2.03;;;;;;;;;;4936650;29;20572;-62
2022/03/10 04:23:30;;;;;;;3.97;2.33;;;;;;;;;;4945519;29;21999;-62
2022/03/10 04:25:57;;;;;;;3.80;1.90;;;;;;;;;;4945626;29;20229;-62
2022/03/10 04:28:24;;;;;;;6.70;2.53;;;;;;;;;;4949827;29;20245;-62
2022/03/10 04:30:51;;;;;;;5.23;3.23;;;;;;;;;;4939618;29;20222;-62
2022/03/10 04:33:18;;;;;;;3.33;2.47;;;;;;;;;;4941991;29;20222;-63
2022/03/10 04:35:45;;;;;;;6.27;2.30;;;;;;;;;;4942119;29;20236;-63
2022/03/10 04:38:12;;;;;;;5.30;1.97;;;;;;;;;;4944076;28;20210;-62
2022/03/10 04:40:40;;;;;;;5.43;2.83;;;;;;;;;;4945931;29;20213;-62
2022/03/10 04:43:07;;;;;;;7.40;2.70;;;;;;;;;;4949205;29;20213;-62
2022/03/10 04:45:34;;;;;;;3.47;2.60;;;;;;;;;;4941121;29;20214;-62
2022/03/10 04:48:03;;;;;;;4.27;2.23;;;;;;;;;;4941700;29;20211;-62
2022/03/10 04:50:31;;;;;;;5.10;2.60;;;;;;;;;;4938835;28;20228;-62
2022/03/10 04:52:58;;;;;;;3.90;2.40;;;;;;;;;;4941481;29;20296;-65
2022/03/10 04:55:25;;;;;;;3.13;1.97;;;;;;;;;;4948290;28;20272;-62
2022/03/10 04:57:53;;;;;;;3.10;2.17;;;;;;;;;;4956302;28;20206;-62
2022/03/10 05:00:21;;;;;;;5.77;2.93;;;;;;;;;;4944595;29;20217;-62
2022/03/10 05:02:48;;;;;;;3.40;2.27;;;;;;;;;;4936750;29;20298;-62
2022/03/10 05:05:17;;;;;;;3.27;2.20;;;;;;;;;;4944061;29;20199;-62
2022/03/10 05:07:44;;;;;;;6.10;3.17;;;;;;;;;;4940963;29;20214;-62
2022/03/10 05:10:12;;;;;;;7.73;2.47;;;;;;;;;;4943207;29;20552;-62
2022/03/10 05:12:46;;;;;;;4.53;2.77;;;;;;;;;;4942666;29;20218;-62
2022/03/10 05:15:17;;;;;;;3.53;2.27;;;;;;;;;;4944975;29;20226;-63
2022/03/10 05:17:44;;;;;;;5.23;3.10;;;;;;;;;;4942208;28;20241;-62
2022/03/10 05:20:12;;;;;;;4.93;2.80;;;;;;;;;;4948340;29;20203;-62
2022/03/10 05:22:46;;;;;;;4.47;2.63;;;;;;;;;;4949095;28;20325;-62
2022/03/10 05:25:14;;;;;;;3.80;2.03;;;;;;;;;;4947784;28;20237;-62
2022/03/10 05:27:42;;;;;;;6.13;2.43;;;;;;;;;;4940882;28;20332;-62
2022/03/10 05:30:09;;;;;;;4.87;2.77;;;;;;;;;;4933387;29;20210;-62
2022/03/10 05:32:38;;;;;;;5.10;3.17;;;;;;;;;;4937033;29;20210;-62
2022/03/10 05:35:06;;;;;;;4.10;2.97;;;;;;;;;;4941612;29;20241;-62
2022/03/10 05:37:33;;;;;;;4.90;3.57;;;;;;;;;;4939499;29;20214;-62
2022/03/10 05:40:00;;;;;;;3.10;2.63;;;;;;;;;;4938210;29;20618;-62
2022/03/10 05:42:27;;;;;;;3.03;2.27;;;;;;;;;;4939336;28;20223;-62
2022/03/10 05:44:54;;;;;;;3.17;1.60;;;;;;;;;;4938771;29;20206;-60
2022/03/10 05:47:21;;;;;;;2.30;2.00;;;;;;;;;;4944878;29;20214;-61
2022/03/10 05:49:50;;;;;;;5.07;3.03;;;;;;;;;;4937681;29;20210;-62
2022/03/10 05:52:17;;;;;;;3.03;2.27;;;;;;;;;;4933337;29;20214;-62
2022/03/10 05:54:44;;;;;;;2.90;1.83;;;;;;;;;;4938074;29;20708;-62
2022/03/10 05:57:11;;;;;;;5.23;2.47;;;;;;;;;;4946344;29;20221;-62
2022/03/10 05:59:38;;;;;;;4.67;2.93;;;;;;;;;;4947241;29;20657;-62
2022/03/10 06:02:05;;;;;;;4.13;2.80;;;;;;;;;;4947241;29;20207;-62
2022/03/10 06:04:32;;;;;;;2.27;2.17;;;;;;;;;;4934436;29;20223;-62
2022/03/10 06:07:01;;;;;;;4.77;2.83;;;;;;;;;;4936267;29;20225;-62
2022/03/10 06:09:28;;;;;;;1.93;1.83;;;;;;;;;;4941738;28;20388;-62
2022/03/10 06:11:55;;;;;;;5.97;2.93;;;;;;;;;;4939470;28;20211;-64
2022/03/10 06:14:22;;;;;;;2.77;2.03;;;;;;;;;;4947835;28;20215;-62
2022/03/10 06:16:49;;;;;;;3.10;2.37;;;;;;;;;;4932793;29;20673;-63
2022/03/10 06:19:17;;;;;;;5.37;2.70;;;;;;;;;;4931497;29;20753;-63
2022/03/10 06:21:44;;;;;;;8.43;3.30;;;;;;;;;;4932723;29;20294;-63
2022/03/10 06:24:12;;;;;;;5.10;2.70;;;;;;;;;;4932845;29;20207;-63
2022/03/10 06:26:39;;;;;;;5.13;2.73;;;;;;;;;;4934662;29;20311;-62
2022/03/10 06:29:07;;;;;;;2.53;2.30;;;;;;;;;;4947254;28;20235;-63
2022/03/10 06:31:35;;;;;;;5.97;2.67;;;;;;;;;;4947128;29;20218;-63
2022/03/10 06:34:02;;;;;;;4.10;2.97;;;;;;;;;;4946834;29;20584;-63
2022/03/10 06:36:29;;;;;;;7.43;3.60;;;;;;;;;;4948091;29;20222;-64
2022/03/10 06:38:56;;;;;;;6.63;3.40;;;;;;;;;;4935130;29;20220;-63
2022/03/10 06:41:24;;;;;;;7.97;3.17;;;;;;;;;;4936575;29;20599;-62
2022/03/10 06:43:52;;;;;;;2.97;2.40;;;;;;;;;;4938333;29;20213;-63
2022/03/10 06:46:19;;;;;;;4.07;3.00;;;;;;;;;;4933854;28;20203;-63
2022/03/10 06:48:46;;;;;;;5.57;3.43;;;;;;;;;;4932960;28;20214;-63
2022/03/10 06:51:13;;;;;;;5.13;2.77;;;;;;;;;;4946011;29;20214;-63
2022/03/10 06:53:40;;;;;;;5.07;3.33;;;;;;;;;;4932885;29;20273;-63
2022/03/10 06:56:07;;;;;;;10.77;4.77;;;;;;;;;;4931987;29;20229;-63
2022/03/10 06:58:36;;;;;;;6.97;3.70;;;;;;;;;;4934951;29;20294;-63
2022/03/10 07:01:04;;;;;;;7.80;4.67;;;;;;;;;;4948368;28;20711;-63
2022/03/10 07:03:31;;;;;;;7.93;4.47;;;;;;;;;;4945755;29;20310;-63
2022/03/10 07:05:58;;;;;;;5.83;3.30;;;;;;;;;;4930910;29;20682;-64
2022/03/10 07:08:25;;;;;;;8.43;3.80;;;;;;;;;;4932078;29;20206;-64
2022/03/10 07:10:53;;;;;;;2.57;2.23;;;;;;;;;;4932650;28;20215;-64
2022/03/10 07:13:20;;;;;;;4.03;3.23;;;;;;;;;;4944019;28;20298;-65
2022/03/10 07:15:48;;;;;;;7.33;3.57;;;;;;;;;;4930596;29;20242;-64
2022/03/10 07:18:15;;;;;;;7.43;5.07;;;;;;;;;;4942784;29;20210;-64
2022/03/10 07:20:42;;;;;;;6.80;2.83;;;;;;;;;;4935393;28;20215;-63
2022/03/10 07:23:09;;;;;;;6.67;3.50;;;;;;;;;;4940647;29;20288;-64
2022/03/10 07:25:37;;;;;;;6.37;4.00;;;;;;;;;;4951077;28;20225;-64
2022/03/10 07:28:04;;;;;;;7.27;3.60;;;;;;;;;;4950689;28;20269;-64
2022/03/10 07:30:31;;;;;;;5.73;3.90;;;;;;;;;;4947968;28;20203;-63
2022/03/10 07:32:59;;;;;;;4.60;3.27;;;;;;;;;;4952948;29;20212;-63
2022/03/10 07:35:27;;;;;;;4.87;3.30;;;;;;;;;;4946392;28;20230;-63
2022/03/10 07:37:56;;;;;;;4.57;3.63;;;;;;;;;;4951337;28;20232;-63
2022/03/10 07:40:23;;;;;;;4.70;3.20;;;;;;;;;;4950101;28;20211;-64
2022/03/10 07:42:50;;;;;;;8.07;4.20;;;;;;;;;;4942451;28;20219;-63
2022/03/10 07:45:17;;;;;;;6.53;3.40;;;;;;;;;;4949596;28;20633;-63
2022/03/10 07:47:44;;;;;;;6.27;3.40;;;;;;;;;;4949938;29;20207;-63
2022/03/10 07:50:13;;;;;;;5.20;3.17;;;;;;;;;;4945866;28;20208;-63
2022/03/10 07:52:40;;;;;;;5.20;2.73;;;;;;;;;;4940245;28;20244;-63
2022/03/10 07:55:08;;;;;;;4.27;2.73;;;;;;;;;;4945411;29;20584;-63
2022/03/10 07:57:35;;;;;;;5.50;2.97;;;;;;;;;;4934289;29;20271;-63
2022/03/10 08:00:04;;;;;;;6.53;4.07;;;;;;;;;;4946205;28;20211;-63
2022/03/10 08:02:31;;;;;;;5.43;3.87;;;;;;;;;;4940756;29;20215;-63
2022/03/10 08:04:58;;;;;;;4.03;3.30;;;;;;;;;;4940654;29;20964;-63
2022/03/10 08:07:32;;;;;;;5.20;2.43;;;;;;;;;;4953036;29;20207;-63
2022/03/10 08:09:59;;;;;;;3.93;2.40;;;;;;;;;;4952248;28;20368;-63
2022/03/10 08:12:27;;;;;;;4.20;3.50;;;;;;;;;;4964031;28;20211;-64
2022/03/10 08:14:54;;;;;;;4.20;3.70;;;;;;;;;;4962415;28;20297;-64
2022/03/10 08:17:21;;;;;;;6.47;4.37;;;;;;;;;;4941409;29;20247;-62
2022/03/10 08:19:48;;;;;;;7.37;3.83;;;;;;;;;;4945142;28;20212;-62
2022/03/10 08:22:16;;;;;;;7.83;3.97;;;;;;;;;;4933462;29;20217;-61
2022/03/10 08:24:44;;;;;;;6.00;4.23;;;;;;;;;;4939181;28;20248;-62
2022/03/10 08:27:12;;;;;;;3.47;3.13;;;;;;;;;;4965396;28;20654;-63
2022/03/10 08:29:39;;;;;;;9.67;3.10;;;;;;;;;;4967220;28;20210;-63
2022/03/10 08:32:07;;;;;;;4.23;2.27;;;;;;;;;;4933573;29;20214;-62
2022/03/10 08:34:34;;;;;;;3.53;2.70;;;;;;;;;;4933000;29;20623;-64
2022/03/10 08:37:01;;;;;;;10.00;4.43;;;;;;;;;;4933264;29;20240;-61
2022/03/10 08:39:28;;;;;;;6.10;2.43;;;;;;;;;;4934047;29;20222;-63
2022/03/10 08:41:56;;;;;;;2.87;2.30;;;;;;;;;;4952510;29;20643;-63
2022/03/10 08:44:23;;;;;;;6.03;3.83;;;;;;;;;;4952681;29;20214;-62
2022/03/10 08:46:51;;;;;;;8.03;3.67;;;;;;;;;;4965155;28;20213;-62
2022/03/10 08:49:18;;;;;;;4.90;3.87;;;;;;;;;;4964794;28;20207;-64
2022/03/10 08:51:47;;;;;;;9.73;4.03;;;;;;;;;;4935506;29;20204;-62
2022/03/10 08:54:14;;;;;;;7.93;4.77;;;;;;;;;;4935517;29;20271;-63
2022/03/10 08:56:41;;;;;;;5.27;4.40;;;;;;;;;;4952127;28;20238;-63
2022/03/10 08:59:09;;;;;;;4.97;3.37;;;;;;;;;;4969527;28;20676;-62
2022/03/10 09:01:37;;;;;;;4.97;3.57;;;;;;;;;;4944028;28;20210;-62
2022/03/10 09:04:04;;;;;;;5.43;3.80;;;;;;;;;;4946806;28;20215;-62
2022/03/10 09:06:32;;;;;;;6.53;3.97;;;;;;;;;;4948634;28;20701;-63
2022/03/10 09:08:59;;;;;;;5.37;3.63;;;;;;;;;;4949863;29;20859;-62
2022/03/10 09:11:26;;;;;;;7.53;3.63;;;;;;;;;;4949252;28;20218;-63
2022/03/10 09:13:53;;;;;;;3.33;2.97;;;;;;;;;;4950059;29;20218;-63
2022/03/10 09:16:22;;;;;;;9.37;4.40;;;;;;;;;;4949619;29;20330;-63
2022/03/10 09:18:49;;;;;;;7.10;2.67;;;;;;;;;;4950040;29;20992;-62
2022/03/10 09:21:16;;;;;;;8.57;3.70;;;;;;;;;;4961935;28;20214;-62
2022/03/10 09:23:43;;;;;;;4.43;3.67;;;;;;;;;;4968448;28;20217;-62
2022/03/10 09:26:11;;;;;;;5.53;4.10;;;;;;;;;;4959434;28;20230;-62
2022/03/10 09:28:38;;;;;;;5.87;3.87;;;;;;;;;;4948667;29;20656;-61
2022/03/10 09:31:05;;;;;;;5.07;4.00;;;;;;;;;;4949526;29;20223;-61
2022/03/10 09:33:33;;;;;;;5.43;3.80;;;;;;;;;;4953542;28;20211;-63
2022/03/10 09:36:00;;;;;;;6.87;4.60;;;;;;;;;;4949782;29;20239;-64
2022/03/10 09:38:28;;;;;;;5.47;3.37;;;;;;;;;;4946013;29;20296;-64
2022/03/10 09:40:55;;;;;;;6.23;3.20;;;;;;;;;;4938765;29;20215;-61
2022/03/10 09:43:22;;;;;;;4.40;3.80;;;;;;;;;;4948494;29;20579;-62
2022/03/10 09:45:50;;;;;;;4.47;3.10;;;;;;;;;;4943776;28;21050;-64
2022/03/10 09:48:17;;;;;;;8.07;3.37;;;;;;;;;;4949417;29;20636;-62
2022/03/10 09:50:46;;;;;;;3.37;2.67;;;;;;;;;;4957643;28;20206;-62
2022/03/10 09:53:14;;;;;;;3.50;3.20;;;;;;;;;;4949151;28;20270;-63
2022/03/10 09:55:41;;;;;;;6.47;3.30;;;;;;;;;;4941482;28;20215;-62
2022/03/10 09:58:09;;;;;;;4.37;3.50;;;;;;;;;;4935005;28;20211;-62
2022/03/10 10:00:36;;;;;;;4.13;3.70;;;;;;;;;;4941969;29;20273;-63
2022/03/10 10:03:03;;;;;;;4.07;3.40;;;;;;;;;;4945859;29;20206;-61
2022/03/10 10:05:31;;;;;;;6.13;3.47;;;;;;;;;;4945843;29;20218;-62
2022/03/10 10:08:09;;;;;;;5.80;3.73;;;;;;;;;;4946077;29;20219;-65
2022/03/10 10:10:36;;;;;;;4.60;2.57;;;;;;;;;;4952334;28;20203;-62
2022/03/10 10:13:06;;;;;;;5.07;3.67;;;;;;;;;;4926316;29;20216;-62
2022/03/10 10:15:36;;;;;;;4.40;4.00;;;;;;;;;;4944220;28;20257;-64
2022/03/10 10:18:07;;;;;;;3.43;3.10;;;;;;;;;;4948358;28;20246;-63
2022/03/10 10:20:38;;;;;;;3.17;2.87;;;;;;;;;;4939656;28;20222;-66
2022/03/10 10:23:19;;;;;;;4.07;3.17;;;;;;;;;;4946356;29;20218;-63
2022/03/10 10:25:50;;;;;;;4.83;3.60;;;;;;;;;;4938279;28;20231;-63
2022/03/10 10:28:28;;;;;;;5.97;4.77;;;;;;;;;;4926497;29;20903;-63
2022/03/10 10:30:56;;;;;;;6.80;4.40;;;;;;;;;;4945664;28;20639;-62
2022/03/10 10:33:24;;;;;;;5.07;3.90;;;;;;;;;;4946495;29;20681;-63
2022/03/10 10:35:51;;;;;;;5.70;3.77;;;;;;;;;;4945274;29;20686;-62
2022/03/10 10:38:32;;;;;;;3.37;2.73;;;;;;;;;;4945461;29;20235;-63
2022/03/10 10:41:15;;;;;;;3.90;3.43;;;;;;;;;;4944179;28;20219;-61
2022/03/10 10:43:43;;;;;;;4.23;3.60;;;;;;;;;;4943379;29;20219;-64
2022/03/10 10:46:10;;;;;;;4.83;2.93;;;;;;;;;;4945052;29;20831;-62
2022/03/10 10:48:47;;;;;;;3.67;3.33;;;;;;;;;;4945035;28;20246;-65
2022/03/10 10:51:14;;;;;;;4.17;2.53;;;;;;;;;;4939058;29;20788;-62
2022/03/10 10:53:42;;;;;;;8.57;4.37;;;;;;;;;;4938997;28;20572;-63
2022/03/10 10:56:10;;;;;;;5.30;4.00;;;;;;;;;;4944980;28;20776;-64
2022/03/10 10:58:39;;;;;;;4.77;3.70;;;;;;;;;;4939412;28;20207;-63
2022/03/10 11:01:07;;;;;;;5.23;2.87;;;;;;;;;;4942072;29;20207;-63
2022/03/10 11:03:36;;;;;;;4.30;3.70;;;;;;;;;;4945124;28;20223;-61
2022/03/10 11:06:04;;;;;;;2.97;2.70;;;;;;;;;;4944754;29;20214;-62
2022/03/10 11:08:31;;;;;;;6.70;2.67;;;;;;;;;;4944722;29;20761;-62
2022/03/10 11:11:00;;;;;;;4.70;3.73;;;;;;;;;;4944297;28;20218;-61
2022/03/10 11:13:29;;;;;;;4.60;3.13;;;;;;;;;;4945642;29;20225;-65
2022/03/10 11:15:57;;;;;;;1.17;1.03;;;;;;;;;;4957464;28;20698;-62
2022/03/10 11:18:25;;;;;;;2.13;2.03;;;;;;;;;;4964091;28;20234;-63
2022/03/10 11:20:54;;;;;;;3.27;2.70;;;;;;;;;;4964617;28;20210;-63
2022/03/10 11:23:29;;;;;;;2.60;2.00;;;;;;;;;;4950801;28;20217;-64
2022/03/10 11:25:57;;;;;;;3.30;2.67;;;;;;;;;;4943701;28;20810;-64
2022/03/10 11:28:28;;;;;;;4.20;2.80;;;;;;;;;;4938775;29;20246;-63
2022/03/10 11:30:56;;;;;;;2.30;2.10;;;;;;;;;;4944917;29;20219;-63
2022/03/10 11:33:29;;;;;;;3.00;2.70;;;;;;;;;;4944079;28;20568;-62
2022/03/10 11:35:58;;;;;;;2.45;1.73;;;;;;;;;;4943589;28;20222;-61
2022/03/10 11:38:32;;;;;;;2.77;2.57;;;;;;;;;;4928168;28;20242;-61
2022/03/10 11:41:00;;;;;;;2.90;2.70;;;;;;;;;;4936457;29;21001;-59
2022/03/10 11:43:32;;;;;;;2.97;2.63;;;;;;;;;;4938036;28;20212;-59
2022/03/10 11:46:22;;;;;;;4.57;3.33;;;;;;;;;;4936922;28;20452;-61
2022/03/10 11:49:02;;;;;;;3.00;2.53;;;;;;;;;;4942368;29;20247;-63
2022/03/10 11:51:46;;;;;;;3.35;1.85;;;;;;;;;;4931711;29;20578;-65
2022/03/10 11:54:17;;;;;;;2.00;1.90;;;;;;;;;;4935297;28;20932;-61
2022/03/10 11:57:01;;;;;;;2.70;2.30;;;;;;;;;;4943469;29;20246;-61
2022/03/10 11:59:44;;;;;;;6.35;2.20;;;;;;;;;;4943999;28;20286;-63
2022/03/10 12:02:26;;;;;;;2.70;2.50;;;;;;;;;;4939729;29;20222;-63
2022/03/10 12:04:57;;;;;;;1.85;1.75;;;;;;;;;;4945471;28;20215;-63
2022/03/10 12:07:28;;;;;;;2.15;2.03;;;;;;;;;;4962168;28;20210;-62
2022/03/10 12:10:02;;;;;;;3.33;2.50;;;;;;;;;;4962248;28;20211;-62
2022/03/10 12:12:29;;;;;;;1.67;1.60;;;;;;;;;;4941548;29;20295;-62
2022/03/10 12:14:58;;;;;;;2.35;2.17;;;;;;;;;;4948572;29;20269;-62
2022/03/10 12:17:46;;;;;;;2.58;2.28;;;;;;;;;;4948050;29;20318;-63
2022/03/10 12:20:14;;;;;;;1.13;1.02;;;;;;;;;;4948830;28;20213;-62
2022/03/10 12:22:41;;;;;;;1.48;1.38;;;;;;;;;;4945706;29;20207;-62
2022/03/10 12:25:18;;;;;;;2.47;2.28;;;;;;;;;;4966396;28;20916;-62
2022/03/10 12:27:49;;;;;;;2.10;2.00;;;;;;;;;;4948458;28;20449;-62
2022/03/10 12:30:20;;;;;;;4.72;1.73;;;;;;;;;;4929585;29;20318;-64
2022/03/10 12:32:50;;;;;;;2.63;2.00;;;;;;;;;;4959809;28;20204;-63
2022/03/10 12:35:18;;;;;;;2.35;2.15;;;;;;;;;;4936261;29;20215;-64
2022/03/10 12:37:47;;;;;;;2.72;2.15;;;;;;;;;;4948147;28;20241;-62
2022/03/10 12:40:17;;;;;;;1.88;1.73;;;;;;;;;;4948487;28;20374;-62
2022/03/10 12:42:46;;;;;;;1.88;1.65;;;;;;;;;;4963108;28;20217;-63
2022/03/10 12:45:13;;;;;;;1.80;1.50;;;;;;;;;;4929220;29;20226;-67
2022/03/10 12:47:44;;;;;;;3.13;2.28;;;;;;;;;;4929074;29;20215;-61
2022/03/10 12:50:12;;;;;;;1.13;0.98;;;;;;;;;;4928948;29;20231;-61
2022/03/10 12:52:41;;;;;;;8.07;1.63;;;;;;;;;;4939709;28;20879;-61
2022/03/10 12:55:09;;;;;;;1.63;1.40;;;;;;;;;;4943750;28;20333;-61
2022/03/10 12:57:37;;;;;;;0.85;0.85;;;;;;;;;;4947798;29;20243;-61
2022/03/10 13:00:04;;;;;;;1.58;1.48;;;;;;;;;;4947540;29;20282;-60
2022/03/10 13:02:38;;;;;;;2.40;1.50;;;;;;;;;;4953769;28;20789;-63
2022/03/10 13:05:09;;;;;;;0.88;0.88;;;;;;;;;;4942077;28;20226;-64
2022/03/10 13:07:36;;;;;;;0.95;0.95;;;;;;;;;;4946940;28;20583;-63
2022/03/10 13:10:05;;;;;;;1.38;1.27;;;;;;;;;;4947069;28;20219;-62
2022/03/10 13:12:33;;;;;;;1.48;1.38;;;;;;;;;;4946755;29;20215;-61
2022/03/10 13:15:01;;;;;;;1.30;1.30;;;;;;;;;;4954981;28;20309;-62
2022/03/10 13:17:32;;;;;;;1.02;1.02;;;;;;;;;;4953039;28;20238;-62
2022/03/10 13:20:00;;;;;;;1.38;1.13;;;;;;;;;;4940536;28;20262;-62
2022/03/10 13:22:28;;;;;;;1.30;1.20;;;;;;;;;;4946498;29;20211;-62
2022/03/10 13:25:01;;;;;;;1.75;1.65;;;;;;;;;;4944329;28;20247;-62
2022/03/10 13:27:30;;;;;;;1.60;1.50;;;;;;;;;;4952565;28;20238;-62
2022/03/10 13:29:57;;;;;;;2.00;1.90;;;;;;;;;;4940978;29;20223;-62
2022/03/10 13:32:26;;;;;;;1.65;1.55;;;;;;;;;;4945062;29;20221;-63
2022/03/10 13:34:56;;;;;;;1.60;1.50;;;;;;;;;;4932888;29;20219;-63
2022/03/10 13:37:23;;;;;;;1.52;1.42;;;;;;;;;;4947184;28;20231;-62
2022/03/10 13:39:52;;;;;;;1.42;1.33;;;;;;;;;;4935663;29;20234;-63
2022/03/10 13:42:30;;;;;;;1.40;1.30;;;;;;;;;;4943712;29;20281;-60
2022/03/10 13:45:03;;;;;;;2.15;1.95;;;;;;;;;;4940732;29;20223;-63
2022/03/10 13:47:30;;;;;;;1.55;1.45;;;;;;;;;;4947089;29;20582;-61
2022/03/10 13:49:59;;;;;;;1.65;1.52;;;;;;;;;;4943786;28;20211;-62
2022/03/10 13:52:27;;;;;;;1.77;1.67;;;;;;;;;;4946618;28;20321;-62
2022/03/10 13:54:55;;;;;;;1.15;0.90;;;;;;;;;;4932501;29;20860;-62
2022/03/10 13:57:22;;;;;;;1.38;1.15;;;;;;;;;;4927648;29;20249;-62
2022/03/10 13:59:50;;;;;;;1.50;1.50;;;;;;;;;;4952589;28;20673;-62
2022/03/10 14:02:21;;;;;;;0.97;0.90;;;;;;;;;;4947419;28;20297;-61
2022/03/10 14:04:48;;;;;;;1.77;1.50;;;;;;;;;;4934069;29;20211;-60
2022/03/10 14:07:15;;;;;;;1.55;1.45;;;;;;;;;;4950615;28;20708;-61
2022/03/10 14:09:43;;;;;;;1.42;1.33;;;;;;;;;;4966211;28;20218;-61
2022/03/10 14:12:17;;;;;;;1.63;1.52;;;;;;;;;;4966300;28;20214;-61
2022/03/10 14:14:47;;;;;;;2.13;2.03;;;;;;;;;;4946450;28;20755;-60
2022/03/10 14:17:14;;;;;;;0.55;0.55;;;;;;;;;;4927469;29;20239;-60
2022/03/10 14:19:41;;;;;;;1.58;1.48;;;;;;;;;;4957496;28;20218;-60
2022/03/10 14:22:15;;;;;;;1.90;1.55;;;;;;;;;;4945590;29;20219;-60
2022/03/10 14:24:42;;;;;;;2.88;1.90;;;;;;;;;;4936327;29;20555;-60
2022/03/10 14:27:10;;;;;;;1.92;1.83;;;;;;;;;;4926003;29;20631;-60
2022/03/10 14:29:43;;;;;;;1.83;1.70;;;;;;;;;;4930499;29;20215;-61
2022/03/10 14:32:12;;;;;;;1.90;1.80;;;;;;;;;;4943080;28;20215;-61
2022/03/10 14:34:39;;;;;;;1.63;1.52;;;;;;;;;;4936827;29;20741;-61
2022/03/10 14:37:07;;;;;;;3.45;2.42;;;;;;;;;;4946465;29;21230;-61
2022/03/10 14:39:34;;;;;;;1.55;1.50;;;;;;;;;;4948285;28;20230;-60
2022/03/10 14:42:01;;;;;;;2.60;1.52;;;;;;;;;;4945152;29;20250;-61
2022/03/10 14:44:28;;;;;;;2.85;2.58;;;;;;;;;;4940763;29;20923;-60
2022/03/10 14:46:56;;;;;;;2.80;2.33;;;;;;;;;;4926037;29;20216;-61
2022/03/10 14:49:29;;;;;;;2.70;2.50;;;;;;;;;;4926488;29;20215;-62
2022/03/10 14:51:56;;;;;;;2.67;2.30;;;;;;;;;;4929106;28;20405;-63
2022/03/10 14:54:23;;;;;;;1.67;1.57;;;;;;;;;;4924575;29;20223;-63
2022/03/10 14:56:50;;;;;;;2.90;1.90;;;;;;;;;;4925558;29;20310;-63